Time;durP1;ratioP1;P1;durP2;ratioP2;P2;SDS_P1;SDS_P2;PMS_P1;PMS_P2;Temp;Humidity;BMP_temperature;BMP_pressure;BME280_temperature;BME280_humidity;BME280_pressure;Samples;Min_cycle;Max_cycle;Signal;HPM_P1;HPM_P2
2022/10/23 00:01:41;;;;;;;9.35;7.32;;;22.50;63.00;;;;;;4972355;28;20042;-69
2022/10/23 00:04:30;;;;;;;17.10;7.07;;;22.40;62.90;;;;;;4946092;28;20054;-69
2022/10/23 00:06:56;;;;;;;9.27;6.22;;;22.60;62.80;;;;;;4949431;28;20055;-68
2022/10/23 00:09:23;;;;;;;12.27;7.07;;;22.50;62.90;;;;;;4950449;29;20109;-67
2022/10/23 00:11:50;;;;;;;8.95;6.72;;;22.60;62.90;;;;;;4955907;28;20504;-69
2022/10/23 00:14:22;;;;;;;9.75;7.53;;;22.60;62.70;;;;;;4963417;28;20047;-69
2022/10/23 00:16:48;;;;;;;11.43;7.68;;;22.50;62.70;;;;;;4938970;29;20571;-69
2022/10/23 00:19:14;;;;;;;14.18;7.65;;;22.50;62.70;;;;;;4958318;28;20034;-69
2022/10/23 00:21:40;;;;;;;14.75;7.95;;;22.60;62.80;;;;;;4972937;28;20039;-69
2022/10/23 00:24:07;;;;;;;16.13;7.85;;;22.60;62.80;;;;;;5020954;28;20502;-68
2022/10/23 00:26:33;;;;;;;11.10;6.30;;;22.70;62.80;;;;;;5001819;28;20172;-68
2022/10/23 00:28:59;;;;;;;14.90;8.32;;;22.60;62.60;;;;;;5021517;28;20721;-69
2022/10/23 00:31:25;;;;;;;13.57;7.47;;;22.60;62.60;;;;;;5026478;28;20037;-69
2022/10/23 00:33:52;;;;;;;10.15;6.75;;;22.50;62.70;;;;;;5028060;28;20037;-69
2022/10/23 00:36:20;;;;;;;13.05;7.00;;;22.50;62.70;;;;;;5027658;28;20079;-69
2022/10/23 00:38:46;;;;;;;11.15;7.45;;;22.50;62.80;;;;;;5025934;28;20121;-69
2022/10/23 00:41:23;;;;;;;10.18;6.88;;;22.50;62.80;;;;;;5030540;28;20543;-69
2022/10/23 00:44:09;;;;;;;10.82;7.13;;;22.40;62.80;;;;;;5008404;28;20045;-69
2022/10/23 00:46:37;;;;;;;12.18;7.43;;;22.40;62.90;;;;;;5041586;28;20034;-69
2022/10/23 00:49:04;;;;;;;9.98;7.35;;;22.40;62.90;;;;;;5009670;28;20453;-69
2022/10/23 00:51:37;;;;;;;10.55;7.15;;;22.50;63.10;;;;;;5043143;28;20398;-69
2022/10/23 00:54:03;;;;;;;10.05;7.43;;;22.40;62.90;;;;;;5031528;28;20034;-69
2022/10/23 00:56:32;;;;;;;8.35;7.00;;;22.40;62.70;;;;;;5013458;28;20034;-69
2022/10/23 00:58:58;;;;;;;17.15;7.47;;;22.40;62.80;;;;;;5031423;28;20045;-69
2022/10/23 01:01:25;;;;;;;12.18;7.43;;;22.40;63.00;;;;;;5028793;28;20037;-68
2022/10/23 01:03:52;;;;;;;17.05;9.15;;;22.20;62.70;;;;;;5034444;28;20029;-69
2022/10/23 01:06:33;;;;;;;14.90;8.73;;;22.30;62.70;;;;;;5014586;28;20467;-69
2022/10/23 01:09:24;;;;;;;14.02;7.95;;;22.40;62.80;;;;;;5032622;28;20037;-68
2022/10/23 01:11:53;;;;;;;13.45;9.52;;;22.40;62.70;;;;;;5029798;28;20053;-68
2022/10/23 01:14:42;;;;;;;16.55;9.45;;;22.40;62.70;;;;;;5029770;28;20026;-69
2022/10/23 01:17:20;;;;;;;16.08;9.27;;;22.40;62.70;;;;;;5014733;28;20030;-69
2022/10/23 01:20:04;;;;;;;15.73;9.38;;;22.40;62.70;;;;;;5025525;28;20033;-69
2022/10/23 01:22:55;;;;;;;16.27;8.90;;;22.50;62.70;;;;;;5012198;28;20026;-69
2022/10/23 01:25:52;;;;;;;18.30;8.52;;;22.40;62.60;;;;;;5026693;28;20068;-69
2022/10/23 01:28:28;;;;;;;18.45;9.85;;;22.40;62.50;;;;;;5031275;28;20049;-69
2022/10/23 01:30:58;;;;;;;13.07;9.57;;;22.40;62.60;;;;;;5029456;28;20042;-69
2022/10/23 01:34:00;;;;;;;15.52;8.85;;;22.40;62.70;;;;;;5001044;28;20037;-69
2022/10/23 01:36:29;;;;;;;14.10;8.65;;;22.30;62.70;;;;;;4951615;29;20509;-69
2022/10/23 01:39:27;;;;;;;11.93;8.63;;;22.40;62.80;;;;;;4933345;29;20043;-69
2022/10/23 01:42:09;;;;;;;17.52;8.70;;;22.30;62.90;;;;;;4905863;29;20442;-68
2022/10/23 01:44:43;;;;;;;16.00;8.75;;;22.40;62.80;;;;;;4907364;29;20048;-69
2022/10/23 01:47:11;;;;;;;16.35;9.13;;;22.20;62.70;;;;;;4912554;29;20746;-69
2022/10/23 01:49:58;;;;;;;12.65;8.75;;;22.30;62.90;;;;;;4885129;29;20064;-69
2022/10/23 01:52:25;;;;;;;19.27;9.07;;;22.30;62.90;;;;;;4882477;29;20127;-69
2022/10/23 01:54:55;;;;;;;11.85;9.02;;;22.20;62.80;;;;;;4897043;29;20052;-68
2022/10/23 01:57:24;;;;;;;12.15;9.10;;;22.20;62.90;;;;;;4912924;29;20127;-68
2022/10/23 01:59:56;;;;;;;15.07;8.15;;;22.30;63.10;;;;;;4893636;29;20044;-68
2022/10/23 02:02:23;;;;;;;15.48;9.23;;;22.10;62.90;;;;;;4861554;29;20569;-69
2022/10/23 02:05:38;;;;;;;17.77;9.30;;;22.30;63.00;;;;;;4926947;29;20051;-69
2022/10/23 02:08:05;;;;;;;14.15;8.95;;;22.20;62.80;;;;;;4901317;29;20051;-69
2022/10/23 02:10:53;;;;;;;15.48;8.30;;;22.20;62.80;;;;;;4932258;28;20064;-69
2022/10/23 02:13:44;;;;;;;13.32;8.02;;;22.20;62.80;;;;;;4934163;29;20092;-68
2022/10/23 02:16:21;;;;;;;17.23;8.80;;;22.30;62.80;;;;;;4933578;29;20051;-69
2022/10/23 02:19:16;;;;;;;11.50;8.32;;;22.30;62.80;;;;;;4900543;29;20090;-69
2022/10/23 02:22:09;;;;;;;13.60;8.18;;;22.30;62.80;;;;;;4931337;29;20154;-69
2022/10/23 02:25:03;;;;;;;14.10;7.97;;;22.30;62.70;;;;;;4916697;29;20107;-69
2022/10/23 02:27:55;;;;;;;14.50;8.05;;;22.20;62.70;;;;;;4894882;29;20045;-69
2022/10/23 02:30:46;;;;;;;16.00;7.90;;;22.30;63.00;;;;;;4848181;29;20044;-68
2022/10/23 02:33:13;;;;;;;15.75;8.10;;;22.20;62.80;;;;;;4842092;29;20526;-69
2022/10/23 02:35:40;;;;;;;11.75;8.48;;;22.20;62.70;;;;;;4857534;29;20090;-68
2022/10/23 02:38:32;;;;;;;12.93;7.95;;;22.20;62.70;;;;;;4865239;29;20134;-68
2022/10/23 02:41:25;;;;;;;15.65;8.70;;;22.30;62.70;;;;;;4934302;29;20098;-68
2022/10/23 02:44:26;;;;;;;14.50;8.35;;;22.20;62.60;;;;;;4891166;29;20081;-69
2022/10/23 02:47:22;;;;;;;11.27;8.30;;;22.00;62.50;;;;;;4836286;29;20110;-68
2022/10/23 02:50:32;;;;;;;14.65;8.18;;;22.10;62.70;;;;;;4839465;29;20105;-69
2022/10/23 02:53:29;;;;;;;13.20;8.80;;;22.10;62.70;;;;;;4832787;29;20737;-68
2022/10/23 02:56:07;;;;;;;15.68;8.82;;;22.10;62.70;;;;;;4835418;29;20049;-69
2022/10/23 02:58:40;;;;;;;15.18;9.05;;;22.00;62.70;;;;;;4843072;29;20048;-69
2022/10/23 03:01:13;;;;;;;;;;;22.10;62.70;;;;;;4885243;29;20498;-68
2022/10/23 03:03:56;;;;;;;15.38;10.60;;;22.10;62.60;;;;;;4878764;29;20412;-69
2022/10/23 03:06:23;;;;;;;15.38;10.45;;;22.00;62.80;;;;;;4894361;29;20048;-65
2022/10/23 03:08:57;;;;;;;20.23;10.95;;;22.10;62.80;;;;;;4873566;29;20068;-69
2022/10/23 03:11:25;;;;;;;19.90;10.90;;;22.10;62.70;;;;;;4873762;29;20451;-68
2022/10/23 03:13:51;;;;;;;21.40;11.05;;;22.10;62.70;;;;;;4859145;29;20046;-68
2022/10/23 03:16:17;;;;;;;20.45;11.77;;;22.10;62.60;;;;;;4863145;29;20117;-69
2022/10/23 03:18:49;;;;;;;19.02;12.35;;;22.20;62.60;;;;;;4862390;29;20058;-69
2022/10/23 03:21:15;;;;;;;20.80;11.43;;;22.20;62.60;;;;;;4912055;29;20220;-68
2022/10/23 03:23:41;;;;;;;17.23;11.68;;;22.20;62.60;;;;;;4931249;29;20409;-69
2022/10/23 03:26:07;;;;;;;19.92;12.23;;;22.20;62.50;;;;;;4950942;29;20058;-69
2022/10/23 03:28:39;;;;;;;21.40;11.75;;;22.10;62.50;;;;;;4903201;29;20083;-68
2022/10/23 03:31:05;;;;;;;18.23;11.77;;;22.10;62.60;;;;;;4910370;29;20044;-68
2022/10/23 03:33:31;;;;;;;16.25;11.13;;;22.20;62.40;;;;;;4912439;29;20130;-68
2022/10/23 03:36:05;;;;;;;18.42;11.55;;;22.20;62.40;;;;;;4895338;29;20048;-69
2022/10/23 03:38:32;;;;;;;20.77;12.65;;;22.20;62.40;;;;;;4909976;29;20123;-67
2022/10/23 03:40:58;;;;;;;18.35;12.02;;;22.20;62.40;;;;;;4949672;28;20104;-69
2022/10/23 03:43:24;;;;;;;19.63;12.15;;;22.20;62.50;;;;;;4966941;28;20255;-69
2022/10/23 03:45:50;;;;;;;23.05;12.63;;;22.20;62.50;;;;;;4913807;28;20524;-69
2022/10/23 03:48:17;;;;;;;18.00;12.68;;;22.10;62.50;;;;;;4953132;28;20069;-69
2022/10/23 03:51:04;;;;;;;21.88;12.75;;;22.10;62.50;;;;;;4930441;29;20040;-69
2022/10/23 03:53:30;;;;;;;22.13;13.43;;;22.00;62.50;;;;;;4915529;29;20552;-68
2022/10/23 03:56:16;;;;;;;21.65;13.15;;;22.00;62.50;;;;;;4893324;29;20060;-68
2022/10/23 03:59:03;;;;;;;24.30;14.38;;;22.00;62.40;;;;;;4875370;29;20075;-68
2022/10/23 04:01:29;;;;;;;22.27;13.88;;;22.00;62.50;;;;;;4878371;29;20056;-69
2022/10/23 04:03:55;;;;;;;23.05;13.48;;;22.10;62.70;;;;;;4893544;29;20159;-69
2022/10/23 04:06:23;;;;;;;20.10;13.75;;;22.00;62.50;;;;;;4862990;29;20047;-68
2022/10/23 04:08:54;;;;;;;25.75;14.48;;;22.00;62.50;;;;;;4886421;29;20075;-68
2022/10/23 04:11:21;;;;;;;24.65;14.50;;;22.10;62.60;;;;;;4915559;29;20044;-69
2022/10/23 04:13:48;;;;;;;26.20;13.98;;;22.00;62.50;;;;;;4906286;29;20052;-68
2022/10/23 04:16:14;;;;;;;27.92;13.98;;;22.20;62.30;;;;;;4909321;29;20040;-68
2022/10/23 04:18:41;;;;;;;25.77;14.30;;;22.20;62.20;;;;;;4903179;29;20059;-69
2022/10/23 04:21:27;;;;;;;27.60;14.80;;;22.20;62.00;;;;;;4920552;29;20090;-70
2022/10/23 04:24:13;;;;;;;27.45;14.77;;;22.20;61.80;;;;;;4931144;29;20055;-69
2022/10/23 04:26:39;;;;;;;23.83;14.38;;;22.30;61.90;;;;;;4934969;29;20594;-69
2022/10/23 04:29:09;;;;;;;26.83;14.52;;;22.20;61.70;;;;;;4939627;29;20109;-68
2022/10/23 04:31:35;;;;;;;33.20;13.82;;;22.30;61.80;;;;;;4953086;29;20131;-68
2022/10/23 04:34:01;;;;;;;25.50;13.88;;;22.30;61.70;;;;;;4953989;28;20054;-68
2022/10/23 04:36:31;;;;;;;27.38;13.50;;;22.30;61.60;;;;;;4937264;28;20062;-68
2022/10/23 04:39:04;;;;;;;20.65;12.57;;;22.30;61.80;;;;;;4953811;29;20044;-68
2022/10/23 04:41:31;;;;;;;24.33;12.60;;;22.30;61.80;;;;;;4937439;29;20520;-69
2022/10/23 04:43:57;;;;;;;26.83;14.32;;;22.30;61.70;;;;;;4905105;29;20052;-68
2022/10/23 04:46:23;;;;;;;23.80;12.90;;;22.20;61.60;;;;;;4868461;29;20029;-69
2022/10/23 04:48:49;;;;;;;26.95;13.85;;;22.20;61.50;;;;;;4881126;29;20135;-68
2022/10/23 04:51:22;;;;;;;26.83;12.80;;;22.30;61.60;;;;;;4892271;29;20048;-69
2022/10/23 04:54:12;;;;;;;21.60;12.60;;;22.20;61.60;;;;;;4900598;29;20067;-69
2022/10/23 04:56:40;;;;;;;26.15;14.10;;;22.20;61.70;;;;;;4905926;29;20052;-69
2022/10/23 04:59:10;;;;;;;24.02;12.75;;;22.10;61.70;;;;;;4904238;29;20044;-68
2022/10/23 05:01:56;;;;;;;21.13;13.73;;;22.20;62.00;;;;;;4895242;29;20479;-69
2022/10/23 05:04:23;;;;;;;28.98;14.65;;;22.20;61.80;;;;;;4895092;29;20053;-68
2022/10/23 05:07:08;;;;;;;23.73;12.75;;;22.20;61.80;;;;;;4879250;29;20045;-69
2022/10/23 05:09:56;;;;;;;21.92;13.25;;;22.20;61.80;;;;;;4890518;29;20148;-68
2022/10/23 05:12:37;;;;;;;23.90;14.27;;;22.10;61.70;;;;;;4870119;29;20514;-69
2022/10/23 05:15:03;;;;;;;21.83;13.65;;;22.20;61.80;;;;;;4873636;29;20158;-68
2022/10/23 05:17:35;;;;;;;23.08;14.05;;;22.20;61.60;;;;;;4872143;29;20056;-68
2022/10/23 05:20:06;;;;;;;26.40;13.75;;;22.20;61.70;;;;;;4855549;29;20037;-68
2022/10/23 05:22:35;;;;;;;28.60;14.25;;;22.30;61.80;;;;;;4912296;29;20480;-69
2022/10/23 05:25:04;;;;;;;23.50;13.90;;;22.20;61.70;;;;;;4899369;29;20465;-67
2022/10/23 05:27:32;;;;;;;23.05;13.90;;;22.30;61.50;;;;;;4914364;29;20048;-69
2022/10/23 05:29:58;;;;;;;26.83;14.65;;;22.30;61.60;;;;;;4947177;28;20123;-69
2022/10/23 05:32:44;;;;;;;22.02;13.93;;;22.30;61.70;;;;;;4992647;28;20053;-68
2022/10/23 05:35:18;;;;;;;25.98;13.60;;;22.20;62.20;;;;;;4966642;28;20117;-69
2022/10/23 05:38:05;;;;;;;23.52;13.82;;;22.20;61.90;;;;;;4947549;29;20035;-67
2022/10/23 05:40:31;;;;;;;27.77;14.30;;;22.10;62.10;;;;;;4934915;29;20043;-66
2022/10/23 05:43:03;;;;;;;24.67;14.70;;;22.10;64.10;;;;;;4950255;29;20047;-68
2022/10/23 05:45:49;;;;;;;24.38;13.20;;;22.20;64.80;;;;;;4893281;29;20051;-68
2022/10/23 05:48:39;;;;;;;19.05;11.43;;;22.10;64.10;;;;;;4875734;29;20041;-67
2022/10/23 05:51:23;;;;;;;18.90;9.10;;;22.20;65.60;;;;;;4860921;29;20049;-67
2022/10/23 05:53:55;;;;;;;14.63;8.40;;;22.50;64.00;;;;;;4844391;29;20045;-67
2022/10/23 05:56:30;;;;;;;17.02;9.45;;;22.50;67.60;;;;;;4869940;29;20621;-67
2022/10/23 05:59:01;;;;;;;18.05;9.73;;;22.60;66.50;;;;;;4863523;29;20041;-67
2022/10/23 06:01:48;;;;;;;24.08;13.27;;;22.70;64.30;;;;;;4861526;29;20064;-64
2022/10/23 06:04:19;;;;;;;25.83;14.27;;;22.70;65.40;;;;;;4848059;29;20198;-63
2022/10/23 06:07:05;;;;;;;26.08;13.75;;;22.70;64.20;;;;;;4873441;29;20052;-58
2022/10/23 06:09:31;;;;;;;17.42;10.18;;;22.70;64.20;;;;;;4887419;29;20463;-63
2022/10/23 06:12:00;;;;;;;13.10;7.88;;;22.70;60.30;;;;;;4887675;29;20037;-64
2022/10/23 06:14:26;;;;;;;11.88;7.32;;;22.70;60.30;;;;;;4891377;29;20177;-62
2022/10/23 06:16:53;;;;;;;16.38;8.80;;;22.90;58.40;;;;;;4879017;29;20045;-61
2022/10/23 06:19:20;;;;;;;33.72;17.20;;;23.00;58.70;;;;;;4885265;29;20150;-65
2022/10/23 06:21:49;;;;;;;29.20;16.42;;;23.10;62.10;;;;;;4885918;29;20056;-64
2022/10/23 06:24:16;;;;;;;23.27;11.35;;;23.00;62.70;;;;;;4880089;29;20051;-67
2022/10/23 06:26:55;;;;;;;23.20;12.00;;;23.10;62.90;;;;;;4914575;29;20062;-67
2022/10/23 06:29:33;;;;;;;19.98;12.05;;;23.20;63.10;;;;;;4890210;29;20076;-66
2022/10/23 06:32:00;;;;;;;21.20;10.68;;;23.10;63.40;;;;;;4891304;29;20045;-65
2022/10/23 06:34:26;;;;;;;28.35;12.75;;;23.10;65.20;;;;;;4877786;29;20100;-69
2022/10/23 06:36:53;;;;;;;23.58;9.48;;;23.30;66.50;;;;;;4890979;29;20074;-65
2022/10/23 06:39:49;;;;;;;20.58;10.52;;;23.10;65.40;;;;;;4870704;29;20080;-67
2022/10/23 06:42:29;;;;;;;14.23;8.57;;;23.20;64.20;;;;;;4882524;29;20044;-68
2022/10/23 06:45:15;;;;;;;19.85;11.18;;;23.10;63.90;;;;;;4895262;29;20048;-67
2022/10/23 06:47:50;;;;;;;21.33;11.40;;;23.20;63.60;;;;;;4856916;29;20452;-69
2022/10/23 06:50:26;;;;;;;15.18;8.27;;;23.20;63.30;;;;;;4855315;29;20459;-66
2022/10/23 06:52:53;;;;;;;19.15;10.38;;;23.30;63.40;;;;;;4851367;29;20100;-68
2022/10/23 06:55:21;;;;;;;19.13;10.93;;;23.20;63.30;;;;;;4841268;29;20535;-68
2022/10/23 06:57:47;;;;;;;22.98;10.00;;;23.20;62.90;;;;;;4855896;29;20140;-68
2022/10/23 07:00:13;;;;;;;17.92;9.88;;;23.30;62.90;;;;;;4855375;29;20045;-67
2022/10/23 07:03:02;;;;;;;20.75;11.45;;;23.20;62.50;;;;;;4813598;29;20138;-66
2022/10/23 07:05:29;;;;;;;28.13;13.73;;;23.30;62.20;;;;;;4806658;29;20548;-68
2022/10/23 07:07:55;;;;;;;23.55;13.80;;;23.30;62.10;;;;;;4851801;29;20183;-68
2022/10/23 07:10:25;;;;;;;27.73;14.93;;;23.30;61.80;;;;;;4832967;29;20054;-67
2022/10/23 07:13:16;;;;;;;28.23;16.33;;;23.30;60.80;;;;;;4821844;29;20136;-66
2022/10/23 07:15:57;;;;;;;23.67;10.43;;;23.40;60.90;;;;;;4838572;29;20053;-65
2022/10/23 07:18:27;;;;;;;24.10;12.95;;;23.40;61.20;;;;;;4859272;29;20048;-65
2022/10/23 07:21:34;;;;;;;28.38;11.48;;;23.40;61.00;;;;;;4856110;29;20061;-66
2022/10/23 07:24:35;;;;;;;31.60;16.50;;;23.40;60.80;;;;;;4866573;29;20176;-67
2022/10/23 07:27:05;;;;;;;27.55;13.45;;;23.40;60.60;;;;;;4870554;29;20109;-67
2022/10/23 07:29:31;;;;;;;16.48;6.57;;;23.50;60.80;;;;;;4857284;29;20076;-66
2022/10/23 07:31:59;;;;;;;16.25;7.68;;;23.40;62.20;;;;;;4862877;29;20128;-68
2022/10/23 07:34:35;;;;;;;6.28;3.28;;;23.60;63.20;;;;;;4893887;29;20100;-66
2022/10/23 07:37:30;;;;;;;4.38;3.22;;;23.80;60.30;;;;;;4882596;29;20412;-66
2022/10/23 07:39:59;;;;;;;10.27;6.25;;;23.70;59.50;;;;;;4855574;29;20033;-67
2022/10/23 07:42:25;;;;;;;5.60;5.03;;;23.70;59.50;;;;;;4869819;29;20622;-66
2022/10/23 07:44:51;;;;;;;4.18;2.55;;;23.70;59.30;;;;;;4864962;29;20119;-65
2022/10/23 07:47:17;;;;;;;2.03;1.92;;;23.70;59.10;;;;;;4864170;29;20128;-66
2022/10/23 07:49:47;;;;;;;7.90;5.18;;;23.60;58.80;;;;;;4863307;29;20053;-66
2022/10/23 07:52:14;;;;;;;24.05;13.45;;;23.60;58.90;;;;;;4859628;29;20100;-66
2022/10/23 07:54:59;;;;;;;27.33;15.07;;;23.60;60.00;;;;;;4906888;29;20107;-66
2022/10/23 07:57:29;;;;;;;27.92;16.58;;;23.70;60.30;;;;;;4885318;29;20086;-66
2022/10/23 08:00:06;;;;;;;28.90;17.00;;;23.60;59.50;;;;;;4897700;29;20510;-65
2022/10/23 08:02:39;;;;;;;28.73;16.83;;;23.60;59.40;;;;;;4903830;29;20127;-65
2022/10/23 08:05:07;;;;;;;29.38;16.13;;;23.60;58.90;;;;;;4908913;29;20127;-67
2022/10/23 08:07:40;;;;;;;34.00;16.95;;;23.70;59.10;;;;;;4915929;29;20051;-67
2022/10/23 08:10:07;;;;;;;31.48;17.45;;;23.80;59.20;;;;;;4932850;29;20071;-68
2022/10/23 08:12:53;;;;;;;26.83;16.80;;;23.60;58.90;;;;;;4907255;28;20041;-68
2022/10/23 08:15:27;;;;;;;33.13;19.05;;;23.60;58.90;;;;;;4972278;28;20041;-68
2022/10/23 08:17:59;;;;;;;28.00;17.40;;;23.70;59.00;;;;;;4955814;28;20535;-68
2022/10/23 08:20:38;;;;;;;26.20;17.52;;;23.60;59.00;;;;;;4972531;28;20703;-68
2022/10/23 08:23:06;;;;;;;29.48;17.80;;;23.80;59.10;;;;;;4974899;28;20120;-67
2022/10/23 08:25:32;;;;;;;27.63;16.98;;;23.60;58.90;;;;;;4971587;28;20074;-68
2022/10/23 08:27:59;;;;;;;28.15;18.27;;;23.70;59.00;;;;;;4958300;28;20054;-66
2022/10/23 08:30:26;;;;;;;29.58;16.58;;;23.60;58.70;;;;;;4955780;28;20110;-66
2022/10/23 08:32:52;;;;;;;27.20;16.95;;;23.70;59.00;;;;;;4971162;28;20038;-66
2022/10/23 08:35:19;;;;;;;28.48;16.33;;;23.70;59.00;;;;;;4959595;28;20344;-67
2022/10/23 08:37:45;;;;;;;22.63;15.27;;;23.60;59.10;;;;;;4987753;28;20535;-68
2022/10/23 08:40:21;;;;;;;25.85;14.73;;;23.70;59.10;;;;;;4968742;28;20379;-67
2022/10/23 08:43:09;;;;;;;16.15;10.63;;;23.60;59.00;;;;;;4988097;28;20407;-66
2022/10/23 08:45:47;;;;;;;12.07;7.70;;;23.60;58.80;;;;;;4966850;28;20070;-67
2022/10/23 08:48:41;;;;;;;10.70;7.15;;;23.60;59.20;;;;;;4986899;28;20046;-69
2022/10/23 08:51:36;;;;;;;9.98;7.13;;;23.60;57.60;;;;;;5031004;28;20037;-67
2022/10/23 08:54:32;;;;;;;10.45;7.25;;;23.60;59.30;;;;;;5031796;28;20033;-69
2022/10/23 08:57:13;;;;;;;9.13;5.75;;;23.70;58.50;;;;;;4961623;28;20047;-67
2022/10/23 08:59:49;;;;;;;10.10;5.93;;;23.60;59.00;;;;;;4955609;28;20074;-66
2022/10/23 09:02:40;;;;;;;9.77;6.18;;;23.60;59.00;;;;;;4912755;29;20433;-67
2022/10/23 09:05:35;;;;;;;8.13;5.68;;;23.60;59.00;;;;;;4895824;29;20689;-69
2022/10/23 09:08:24;;;;;;;11.07;6.15;;;23.70;59.40;;;;;;4912164;29;20044;-69
2022/10/23 09:11:13;;;;;;;9.48;5.22;;;23.60;59.40;;;;;;4858498;29;20131;-68
2022/10/23 09:13:47;;;;;;;9.23;4.68;;;23.70;59.00;;;;;;4857592;29;21023;-67
2022/10/23 09:16:50;;;;;;;5.78;4.93;;;23.70;59.40;;;;;;4852927;29;20068;-67
2022/10/23 09:19:18;;;;;;;5.55;4.22;;;23.70;59.50;;;;;;4858247;29;20392;-71
2022/10/23 09:21:48;;;;;;;6.22;4.63;;;23.70;58.30;;;;;;4857450;29;20042;-69
2022/10/23 09:24:20;;;;;;;5.78;4.38;;;23.50;59.40;;;;;;4857518;29;20708;-70
2022/10/23 09:26:48;;;;;;;5.82;4.20;;;23.60;59.90;;;;;;4857888;29;20054;-66
2022/10/23 09:29:50;;;;;;;8.45;5.50;;;23.60;60.00;;;;;;4859792;29;20068;-68
2022/10/23 09:32:17;;;;;;;7.95;5.55;;;23.70;59.30;;;;;;4811880;29;20440;-69
2022/10/23 09:34:52;;;;;;;6.65;4.93;;;23.60;56.30;;;;;;4870638;29;20114;-68
2022/10/23 09:37:24;;;;;;;8.82;4.75;;;23.60;55.80;;;;;;4861932;29;20056;-68
2022/10/23 09:40:23;;;;;;;6.47;4.20;;;23.60;54.90;;;;;;4879319;29;20063;-68
2022/10/23 09:42:56;;;;;;;12.63;5.15;;;23.60;55.20;;;;;;4893319;29;20451;-67
2022/10/23 09:45:27;;;;;;;14.05;4.75;;;23.60;54.90;;;;;;4901561;29;22040;-68
2022/10/23 09:48:04;;;;;;;8.18;4.80;;;23.70;55.40;;;;;;4925526;28;20539;-68
2022/10/23 09:50:30;;;;;;;16.85;6.88;;;23.80;61.70;;;;;;4971781;28;20485;-68
2022/10/23 09:52:57;;;;;;;8.07;4.18;;;24.10;62.60;;;;;;4988107;28;20034;-69
2022/10/23 09:55:25;;;;;;;7.85;5.07;;;24.20;58.90;;;;;;4991029;28;20052;-68
2022/10/23 09:57:52;;;;;;;13.52;5.53;;;24.20;59.50;;;;;;4975113;28;20054;-68
2022/10/23 10:00:24;;;;;;;6.68;3.70;;;24.30;63.10;;;;;;4948889;28;20043;-69
2022/10/23 10:02:58;;;;;;;5.38;3.80;;;24.20;60.90;;;;;;4972351;28;20439;-70
2022/10/23 10:05:56;;;;;;;7.80;4.35;;;24.40;60.60;;;;;;4973716;28;20475;-68
2022/10/23 10:08:38;;;;;;;44.92;34.25;;;24.60;58.20;;;;;;4947840;28;20038;-67
2022/10/23 10:11:21;;;;;;;348.88;240.23;;;24.80;59.50;;;;;;4983195;28;20121;-68
2022/10/23 10:13:55;;;;;;;99.50;77.65;;;25.00;59.30;;;;;;4989076;28;20042;-66
2022/10/23 10:16:52;;;;;;;66.70;51.78;;;25.30;64.00;;;;;;4974163;28;20141;-67
2022/10/23 10:19:47;;;;;;;31.92;24.95;;;25.80;60.30;;;;;;4987234;28;20450;-70
2022/10/23 10:22:30;;;;;;;27.95;19.30;;;25.90;60.70;;;;;;4973272;28;20168;-69
2022/10/23 10:25:21;;;;;;;25.08;17.45;;;26.00;60.20;;;;;;4972453;28;20049;-68
2022/10/23 10:28:18;;;;;;;25.40;18.00;;;26.00;58.60;;;;;;4983727;28;20039;-67
2022/10/23 10:31:03;;;;;;;25.38;18.73;;;26.10;59.20;;;;;;4987328;28;20066;-68
2022/10/23 10:34:06;;;;;;;21.42;15.45;;;26.20;58.40;;;;;;4964567;28;20050;-67
2022/10/23 10:36:51;;;;;;;21.63;15.90;;;26.30;56.50;;;;;;4982988;28;20093;-68
2022/10/23 10:39:33;;;;;;;20.55;15.10;;;26.20;54.60;;;;;;4989239;28;20039;-67
2022/10/23 10:42:18;;;;;;;22.13;17.38;;;26.30;54.40;;;;;;4972988;28;20049;-67
2022/10/23 10:45:15;;;;;;;17.88;12.27;;;26.30;54.50;;;;;;4988452;28;20038;-67
2022/10/23 10:48:00;;;;;;;18.58;14.70;;;26.40;54.20;;;;;;5029546;28;20036;-67
2022/10/23 10:50:45;;;;;;;10.77;9.20;;;26.40;53.40;;;;;;5010813;28;20045;-67
2022/10/23 10:53:42;;;;;;;12.45;7.32;;;26.40;49.80;;;;;;5031237;28;20032;-66
2022/10/23 10:56:14;;;;;;;4.45;3.95;;;26.30;50.80;;;;;;4997222;28;20041;-69
2022/10/23 10:58:57;;;;;;;4.32;3.92;;;26.30;53.40;;;;;;5029232;28;20425;-66
2022/10/23 11:01:27;;;;;;;;;;;26.00;53.50;;;;;;5009668;28;20060;-64
2022/10/23 11:04:00;;;;;;;5.95;5.05;;;26.20;53.70;;;;;;5024201;28;21263;-65
2022/10/23 11:06:33;;;;;;;4.80;4.25;;;26.10;54.10;;;;;;5036505;28;20108;-66
2022/10/23 11:09:14;;;;;;;7.88;4.78;;;25.90;53.90;;;;;;5042072;28;20033;-66
2022/10/23 11:11:40;;;;;;;5.40;4.45;;;25.80;54.50;;;;;;5027131;28;20033;-66
2022/10/23 11:14:21;;;;;;;4.70;4.30;;;25.70;54.80;;;;;;5025375;28;20033;-67
2022/10/23 11:17:08;;;;;;;4.50;4.03;;;25.80;54.80;;;;;;5026414;28;20037;-69
2022/10/23 11:19:48;;;;;;;4.47;3.05;;;25.70;54.70;;;;;;5027081;28;20049;-69
2022/10/23 11:22:38;;;;;;;9.18;4.18;;;25.60;55.30;;;;;;5030731;28;20029;-68
2022/10/23 11:25:04;;;;;;;9.23;6.13;;;25.60;55.70;;;;;;5043666;28;20047;-68
2022/10/23 11:27:54;;;;;;;6.55;4.97;;;25.60;55.80;;;;;;5037016;28;20454;-68
2022/10/23 11:30:26;;;;;;;4.97;4.35;;;25.50;55.50;;;;;;5027715;28;20076;-68
2022/10/23 11:33:18;;;;;;;4.38;3.92;;;25.50;57.20;;;;;;5029739;28;20037;-67
2022/10/23 11:36:04;;;;;;;5.47;3.90;;;25.60;56.10;;;;;;5031456;28;20371;-64
2022/10/23 11:38:32;;;;;;;6.22;4.55;;;25.80;55.60;;;;;;5029529;28;20044;-68
2022/10/23 11:41:02;;;;;;;6.32;4.65;;;25.60;55.40;;;;;;5030036;28;20030;-68
2022/10/23 11:43:34;;;;;;;13.00;10.07;;;25.70;55.40;;;;;;5027788;28;20041;-68
2022/10/23 11:46:13;;;;;;;;;;;25.70;54.80;;;;;;5027744;28;20034;-68
2022/10/23 11:48:42;;;;;;;5.28;4.60;;;25.80;51.60;;;;;;5029661;28;19925;-67
2022/10/23 11:51:27;;;;;;;6.47;5.55;;;25.60;55.10;;;;;;5027150;28;20044;-68
2022/10/23 11:54:11;;;;;;;6.30;5.25;;;25.60;55.70;;;;;;5028389;28;20025;-68
2022/10/23 11:56:49;;;;;;;5.97;4.75;;;25.40;56.30;;;;;;5028479;28;20163;-70
2022/10/23 11:59:37;;;;;;;5.18;4.47;;;25.50;57.00;;;;;;5025266;28;20410;-67
2022/10/23 12:02:36;;;;;;;10.63;6.32;;;25.50;55.10;;;;;;5024704;28;20386;-65
2022/10/23 12:05:35;;;;;;;5.55;4.53;;;25.40;56.00;;;;;;5012134;28;20638;-67
2022/10/23 12:08:04;;;;;;;12.35;5.78;;;25.50;55.80;;;;;;5022610;28;20111;-67
2022/10/23 12:10:35;;;;;;;5.68;4.75;;;25.30;56.00;;;;;;5011487;28;20120;-66
2022/10/23 12:13:04;;;;;;;6.53;4.55;;;25.30;56.00;;;;;;5029766;28;20045;-67
2022/10/23 12:15:33;;;;;;;6.38;5.13;;;25.30;55.40;;;;;;5024886;28;20029;-67
2022/10/23 12:18:16;;;;;;;5.65;4.95;;;25.20;55.60;;;;;;5028293;28;20045;-67
2022/10/23 12:20:53;;;;;;;4.55;4.10;;;25.20;55.90;;;;;;5026504;28;20029;-67
2022/10/23 12:23:34;;;;;;;5.35;3.97;;;25.30;56.20;;;;;;5029229;28;20445;-67
2022/10/23 12:26:17;;;;;;;6.35;4.97;;;25.20;56.30;;;;;;5028718;28;20033;-66
2022/10/23 12:29:10;;;;;;;9.75;6.03;;;25.20;56.80;;;;;;5028705;28;20061;-67
2022/10/23 12:31:39;;;;;;;;;;;25.00;57.00;;;;;;5011522;28;20064;-67
2022/10/23 12:34:21;;;;;;;7.32;4.95;;;25.00;57.00;;;;;;5024615;28;20374;-66
2022/10/23 12:37:06;;;;;;;5.75;4.93;;;25.00;56.30;;;;;;5030895;28;20094;-67
2022/10/23 12:39:38;;;;;;;6.88;5.95;;;25.10;56.60;;;;;;5030838;28;20120;-67
2022/10/23 12:42:11;;;;;;;10.23;5.97;;;25.00;57.00;;;;;;5028343;28;20026;-67
2022/10/23 12:44:37;;;;;;;10.75;5.75;;;25.00;57.00;;;;;;5027992;28;20405;-68
2022/10/23 12:47:03;;;;;;;12.18;6.97;;;25.00;55.40;;;;;;5031340;28;20034;-67
2022/10/23 12:49:32;;;;;;;11.48;6.35;;;25.00;56.70;;;;;;5009728;28;20064;-68
2022/10/23 12:52:04;;;;;;;6.80;5.22;;;24.90;56.80;;;;;;4996150;28;20045;-67
2022/10/23 12:54:32;;;;;;;7.28;5.53;;;25.00;55.10;;;;;;5033184;28;20117;-68
2022/10/23 12:56:58;;;;;;;7.45;5.85;;;24.90;57.00;;;;;;5031439;28;20038;-67
2022/10/23 12:59:36;;;;;;;7.63;5.57;;;25.10;56.80;;;;;;5025650;28;20026;-69
2022/10/23 13:02:23;;;;;;;8.65;4.68;;;24.90;57.50;;;;;;5028169;28;20025;-69
2022/10/23 13:04:52;;;;;;;10.13;5.47;;;24.90;57.10;;;;;;5024396;28;20080;-70
2022/10/23 13:07:22;;;;;;;6.72;5.78;;;24.80;57.40;;;;;;5013181;28;20069;-70
2022/10/23 13:09:49;;;;;;;7.38;5.88;;;24.80;57.60;;;;;;5031255;28;20036;-70
2022/10/23 13:12:26;;;;;;;6.55;4.93;;;24.80;57.30;;;;;;5031095;28;20501;-70
2022/10/23 13:15:07;;;;;;;7.40;5.55;;;24.80;57.70;;;;;;5041226;28;20044;-68
2022/10/23 13:17:44;;;;;;;8.82;5.57;;;24.80;57.60;;;;;;5032184;28;20091;-70
2022/10/23 13:20:21;;;;;;;7.35;5.75;;;24.70;57.70;;;;;;5031250;28;20076;-69
2022/10/23 13:22:52;;;;;;;6.38;5.45;;;24.70;57.30;;;;;;5031636;28;20040;-67